TPC201 LTFM-LTBJ
Flight info
| Callsign | TPC201 |
|---|---|
| Flight time | 0h 53m |
| Altitude | 37000 |
| Route | RATV1D RATVU UT35 NUMTI/N0445F360 DCT KULAR KULA1E |
| Aircraft | A20N/M-SDE2E3FGHIRWXY/LB1 |
Departure
| Time | 2026-02-18 11:03 |
|---|---|
| Airport | İstanbul Airport (LTFM) |
Arrival
| Time | 2026-02-18 11:56 |
|---|---|
| Airport | Adnan Menderes International Airport (LTBJ) |
| Time | Latitude | Longitude | Altitude | Speed | Heading |
|---|---|---|---|---|---|
| 2026-02-18 10:33 | 41.26353 | 28.73820 | 180 ft | 0 kts | 243° |
| 2026-02-18 10:48 | 41.26355 | 28.73825 | 150 ft | 1 kts | 246° |
| 2026-02-18 10:49 | 41.26357 | 28.73829 | 150 ft | 0 kts | 249° |
| 2026-02-18 10:49 | 41.26359 | 28.73839 | 178 ft | 1 kts | 257° |
| 2026-02-18 10:49 | 41.26360 | 28.73844 | 178 ft | 0 kts | 256° |
| 2026-02-18 10:50 | 41.26360 | 28.73843 | 178 ft | 1 kts | 256° |
| 2026-02-18 10:50 | 41.26361 | 28.73848 | 178 ft | 1 kts | 253° |
| 2026-02-18 10:50 | 41.26363 | 28.73857 | 178 ft | 1 kts | 250° |
| 2026-02-18 10:50 | 41.26366 | 28.73867 | 178 ft | 1 kts | 248° |
| 2026-02-18 10:51 | 41.26369 | 28.73876 | 178 ft | 1 kts | 246° |
| 2026-02-18 10:51 | 41.26372 | 28.73886 | 177 ft | 1 kts | 245° |
| 2026-02-18 10:51 | 41.26375 | 28.73895 | 177 ft | 1 kts | 253° |
| 2026-02-18 10:51 | 41.26377 | 28.73905 | 177 ft | 1 kts | 264° |
| 2026-02-18 10:52 | 41.26378 | 28.73915 | 177 ft | 1 kts | 274° |
| 2026-02-18 10:52 | 41.26378 | 28.73921 | 178 ft | 1 kts | 279° |
| 2026-02-18 10:52 | 41.26378 | 28.73920 | 178 ft | 0 kts | 279° |
| 2026-02-18 10:55 | 41.26380 | 28.73916 | 177 ft | 4 kts | 294° |
| 2026-02-18 10:55 | 41.26452 | 28.73902 | 177 ft | 17 kts | 355° |
| 2026-02-18 10:55 | 41.26623 | 28.73874 | 177 ft | 29 kts | 1° |
| 2026-02-18 10:55 | 41.26828 | 28.73871 | 177 ft | 29 kts | 358° |
| 2026-02-18 10:56 | 41.26942 | 28.73836 | 177 ft | 11 kts | 297° |
| 2026-02-18 10:56 | 41.26947 | 28.73748 | 177 ft | 10 kts | 271° |
| 2026-02-18 10:56 | 41.26950 | 28.73623 | 177 ft | 18 kts | 271° |
| 2026-02-18 10:56 | 41.26949 | 28.73418 | 177 ft | 24 kts | 267° |
| 2026-02-18 10:57 | 41.26944 | 28.73181 | 176 ft | 21 kts | 272° |
| 2026-02-18 10:57 | 41.27167 | 28.73097 | 176 ft | 19 kts | 358° |
| 2026-02-18 10:57 | 41.27303 | 28.73092 | 176 ft | 20 kts | 358° |
| 2026-02-18 10:58 | 41.27441 | 28.73090 | 176 ft | 20 kts | 0° |
| 2026-02-18 10:58 | 41.27550 | 28.73081 | 176 ft | 8 kts | 325° |
| 2026-02-18 10:58 | 41.27588 | 28.73015 | 176 ft | 11 kts | 299° |
| 2026-02-18 10:58 | 41.27656 | 28.72969 | 176 ft | 12 kts | 1° |
| 2026-02-18 10:59 | 41.27767 | 28.72970 | 176 ft | 0 kts | 1° |
| 2026-02-18 10:59 | 41.27810 | 28.72994 | 176 ft | 2 kts | 26° |
| 2026-02-18 10:59 | 41.27866 | 28.72988 | 176 ft | 8 kts | 326° |
| 2026-02-18 10:59 | 41.27910 | 28.72935 | 176 ft | 12 kts | 330° |
| 2026-02-18 11:00 | 41.28004 | 28.72953 | 176 ft | 12 kts | 45° |
| 2026-02-18 11:00 | 41.28010 | 28.73051 | 176 ft | 11 kts | 117° |
| 2026-02-18 11:00 | 41.27948 | 28.73078 | 176 ft | 15 kts | 191° |
| 2026-02-18 11:00 | 41.27781 | 28.73054 | 176 ft | 30 kts | 179° |
| 2026-02-18 11:01 | 41.27668 | 28.73109 | 176 ft | 4 kts | 179° |
| 2026-02-18 11:01 | 41.27415 | 28.72976 | 176 ft | 29 kts | 177° |
| 2026-02-18 11:01 | 41.27173 | 28.72981 | 176 ft | 39 kts | 179° |
| 2026-02-18 11:02 | 41.26882 | 28.72977 | 177 ft | 43 kts | 181° |
| 2026-02-18 11:02 | 41.26732 | 28.72950 | 176 ft | 14 kts | 212° |
| 2026-02-18 11:02 | 41.26699 | 28.72796 | 178 ft | 18 kts | 284° |
| 2026-02-18 11:02 | 41.26759 | 28.72760 | 178 ft | 11 kts | 3° |
| 2026-02-18 11:03 | 41.26886 | 28.72761 | 177 ft | 41 kts | 358° |
| 2026-02-18 11:03 | 41.27456 | 28.72739 | 175 ft | 119 kts | 358° |
| 2026-02-18 11:03 | 41.28475 | 28.72714 | 334 ft | 166 kts | 357° |
| 2026-02-18 11:03 | 41.29638 | 28.72794 | 1228 ft | 164 kts | 355° |
| 2026-02-18 11:04 | 41.30743 | 28.72779 | 2432 ft | 155 kts | 352° |
| 2026-02-18 11:04 | 41.31806 | 28.72732 | 3573 ft | 151 kts | 351° |
| 2026-02-18 11:04 | 41.32872 | 28.72675 | 4555 ft | 158 kts | 352° |
| 2026-02-18 11:04 | 41.34048 | 28.72578 | 5187 ft | 188 kts | 350° |
| 2026-02-18 11:05 | 41.35582 | 28.72195 | 4999 ft | 242 kts | 338° |
| 2026-02-18 11:05 | 41.37917 | 28.69485 | 7704 ft | 214 kts | 290° |
| 2026-02-18 11:05 | 41.38169 | 28.67627 | 9146 ft | 198 kts | 270° |
| 2026-02-18 11:06 | 41.38157 | 28.65848 | 10389 ft | 187 kts | 269° |
| 2026-02-18 11:06 | 41.38137 | 28.64143 | 11370 ft | 185 kts | 268° |
| 2026-02-18 11:06 | 41.38125 | 28.62373 | 12025 ft | 197 kts | 269° |
| 2026-02-18 11:06 | 41.38125 | 28.60435 | 12445 ft | 220 kts | 266° |
| 2026-02-18 11:07 | 41.37726 | 28.58513 | 13321 ft | 219 kts | 242° |
| 2026-02-18 11:07 | 41.36720 | 28.57000 | 14180 ft | 222 kts | 218° |
| 2026-02-18 11:07 | 41.35308 | 28.56085 | 14954 ft | 227 kts | 200° |
| 2026-02-18 11:07 | 41.33750 | 28.55736 | 15655 ft | 232 kts | 190° |
| 2026-02-18 11:08 | 41.32129 | 28.55598 | 16359 ft | 235 kts | 188° |
| 2026-02-18 11:08 | 41.30487 | 28.55506 | 17035 ft | 238 kts | 187° |
| 2026-02-18 11:08 | 41.28815 | 28.55441 | 17689 ft | 242 kts | 186° |
| 2026-02-18 11:08 | 41.27123 | 28.55427 | 18353 ft | 245 kts | 182° |
| 2026-02-18 11:09 | 41.25406 | 28.55797 | 18865 ft | 256 kts | 168° |
| 2026-02-18 11:09 | 41.22238 | 28.58226 | 19953 ft | 273 kts | 139° |
| 2026-02-18 11:09 | 41.21002 | 28.60156 | 20491 ft | 278 kts | 126° |
| 2026-02-18 11:10 | 41.20085 | 28.62445 | 20977 ft | 283 kts | 112° |
| 2026-02-18 11:10 | 41.19281 | 28.64840 | 21372 ft | 287 kts | 130° |
| 2026-02-18 11:10 | 41.17779 | 28.66553 | 21361 ft | 295 kts | 161° |
| 2026-02-18 11:10 | 41.15792 | 28.67200 | 21775 ft | 293 kts | 173° |
| 2026-02-18 11:11 | 41.13793 | 28.67852 | 22179 ft | 305 kts | 158° |
| 2026-02-18 11:11 | 41.11993 | 28.69496 | 22316 ft | 325 kts | 134° |
| 2026-02-18 11:11 | 41.10748 | 28.72074 | 22474 ft | 342 kts | 112° |
| 2026-02-18 11:11 | 41.09865 | 28.75089 | 22645 ft | 358 kts | 112° |
| 2026-02-18 11:12 | 41.08816 | 28.78156 | 22810 ft | 373 kts | 117° |
| 2026-02-18 11:12 | 41.07546 | 28.81238 | 22984 ft | 389 kts | 121° |
| 2026-02-18 11:12 | 41.06121 | 28.84327 | 23155 ft | 404 kts | 123° |
| 2026-02-18 11:12 | 41.04496 | 28.87427 | 23313 ft | 416 kts | 133° |
| 2026-02-18 11:13 | 41.02311 | 28.89950 | 23680 ft | 418 kts | 149° |
| 2026-02-18 11:13 | 40.96870 | 28.92291 | 24716 ft | 413 kts | 180° |
| 2026-02-18 11:13 | 40.94969 | 28.92226 | 25038 ft | 412 kts | 187° |
| 2026-02-18 11:14 | 40.92110 | 28.91802 | 25513 ft | 414 kts | 189° |
| 2026-02-18 11:14 | 40.89247 | 28.91298 | 25991 ft | 416 kts | 189° |
| 2026-02-18 11:14 | 40.86347 | 28.91048 | 26439 ft | 420 kts | 181° |
| 2026-02-18 11:14 | 40.83415 | 28.91214 | 26894 ft | 423 kts | 179° |
| 2026-02-18 11:15 | 40.80469 | 28.91438 | 27321 ft | 425 kts | 179° |
| 2026-02-18 11:15 | 40.77504 | 28.91674 | 27683 ft | 428 kts | 179° |
| 2026-02-18 11:15 | 40.74520 | 28.91916 | 28097 ft | 430 kts | 179° |
| 2026-02-18 11:15 | 40.71525 | 28.92160 | 28549 ft | 432 kts | 179° |
| 2026-02-18 11:16 | 40.68518 | 28.92404 | 28922 ft | 434 kts | 179° |
| 2026-02-18 11:16 | 40.65493 | 28.92647 | 29266 ft | 437 kts | 178° |
| 2026-02-18 11:16 | 40.62455 | 28.92891 | 29704 ft | 437 kts | 179° |
| 2026-02-18 11:16 | 40.59438 | 28.93138 | 29941 ft | 441 kts | 177° |
| 2026-02-18 11:17 | 40.56389 | 28.93799 | 30177 ft | 448 kts | 167° |
| 2026-02-18 11:17 | 40.50677 | 28.97275 | 30674 ft | 460 kts | 149° |
| 2026-02-18 11:17 | 40.47988 | 28.99597 | 30944 ft | 463 kts | 149° |
| 2026-02-18 11:18 | 40.45287 | 29.01920 | 31274 ft | 464 kts | 150° |
| 2026-02-18 11:18 | 40.42571 | 29.04245 | 31528 ft | 467 kts | 150° |
| 2026-02-18 11:18 | 40.39852 | 29.06563 | 31910 ft | 466 kts | 150° |
| 2026-02-18 11:18 | 40.37119 | 29.08888 | 32161 ft | 469 kts | 150° |
| 2026-02-18 11:19 | 40.34380 | 29.11211 | 32486 ft | 469 kts | 150° |
| 2026-02-18 11:19 | 40.31669 | 29.13512 | 32788 ft | 470 kts | 150° |
| 2026-02-18 11:19 | 40.28922 | 29.15842 | 33094 ft | 471 kts | 150° |
| 2026-02-18 11:19 | 40.26171 | 29.18172 | 33393 ft | 472 kts | 150° |
| 2026-02-18 11:20 | 40.23401 | 29.20517 | 33688 ft | 473 kts | 150° |
| 2026-02-18 11:20 | 40.20622 | 29.22847 | 33941 ft | 473 kts | 152° |
| 2026-02-18 11:20 | 40.17734 | 29.24870 | 34210 ft | 469 kts | 159° |
| 2026-02-18 11:20 | 40.14719 | 29.26457 | 34500 ft | 465 kts | 164° |
| 2026-02-18 11:21 | 40.11669 | 29.27890 | 34710 ft | 466 kts | 164° |
| 2026-02-18 11:21 | 40.05550 | 29.30784 | 35162 ft | 467 kts | 164° |
| 2026-02-18 11:21 | 40.02537 | 29.32213 | 35383 ft | 467 kts | 164° |
| 2026-02-18 11:22 | 39.99486 | 29.33660 | 35604 ft | 467 kts | 164° |
| 2026-02-18 11:22 | 39.96427 | 29.35110 | 35815 ft | 467 kts | 164° |
| 2026-02-18 11:22 | 39.93369 | 29.36557 | 36018 ft | 468 kts | 164° |
| 2026-02-18 11:22 | 39.90310 | 29.38004 | 36215 ft | 468 kts | 165° |
| 2026-02-18 11:23 | 39.87271 | 29.39562 | 36413 ft | 471 kts | 162° |
| 2026-02-18 11:23 | 39.84257 | 29.41247 | 36604 ft | 472 kts | 161° |
| 2026-02-18 11:23 | 39.81246 | 29.42955 | 36809 ft | 472 kts | 161° |
| 2026-02-18 11:23 | 39.78228 | 29.44652 | 36993 ft | 472 kts | 161° |
| 2026-02-18 11:24 | 39.75210 | 29.46329 | 37197 ft | 472 kts | 161° |
| 2026-02-18 11:24 | 39.72182 | 29.47997 | 37379 ft | 472 kts | 162° |
| 2026-02-18 11:24 | 39.69078 | 29.49256 | 37520 ft | 464 kts | 174° |
| 2026-02-18 11:24 | 39.65896 | 29.49701 | 37621 ft | 456 kts | 186° |
| 2026-02-18 11:25 | 39.62774 | 29.49339 | 37735 ft | 448 kts | 197° |
| 2026-02-18 11:25 | 39.57130 | 29.46470 | 38020 ft | 434 kts | 218° |
| 2026-02-18 11:25 | 39.54623 | 29.44314 | 38167 ft | 433 kts | 218° |
| 2026-02-18 11:26 | 39.52103 | 29.42150 | 38322 ft | 433 kts | 218° |
| 2026-02-18 11:26 | 39.49589 | 29.40002 | 38447 ft | 432 kts | 218° |
| 2026-02-18 11:26 | 39.47080 | 29.37864 | 38607 ft | 431 kts | 218° |
| 2026-02-18 11:26 | 39.44573 | 29.35729 | 38716 ft | 431 kts | 218° |
| 2026-02-18 11:27 | 39.42067 | 29.33596 | 38819 ft | 431 kts | 218° |
| 2026-02-18 11:27 | 39.39561 | 29.31465 | 38935 ft | 431 kts | 218° |
| 2026-02-18 11:27 | 39.37083 | 29.29360 | 39051 ft | 431 kts | 218° |
| 2026-02-18 11:27 | 39.34576 | 29.27232 | 39161 ft | 431 kts | 218° |
| 2026-02-18 11:28 | 39.32072 | 29.25109 | 39334 ft | 429 kts | 218° |
| 2026-02-18 11:28 | 39.27068 | 29.20869 | 39516 ft | 430 kts | 218° |
| 2026-02-18 11:29 | 39.22064 | 29.16636 | 39686 ft | 430 kts | 218° |
| 2026-02-18 11:29 | 39.14563 | 29.10310 | 39701 ft | 428 kts | 218° |
| 2026-02-18 11:30 | 39.09570 | 29.06105 | 39702 ft | 428 kts | 218° |
| 2026-02-18 11:30 | 39.04559 | 29.01890 | 39696 ft | 430 kts | 218° |
| 2026-02-18 11:31 | 38.99583 | 28.97717 | 39712 ft | 428 kts | 218° |
| 2026-02-18 11:31 | 38.94579 | 28.93524 | 39707 ft | 431 kts | 218° |
| 2026-02-18 11:32 | 38.89548 | 28.89317 | 39683 ft | 431 kts | 218° |
| 2026-02-18 11:32 | 38.87042 | 28.87225 | 39323 ft | 430 kts | 218° |
| 2026-02-18 11:32 | 38.84523 | 28.85123 | 38644 ft | 433 kts | 218° |
| 2026-02-18 11:33 | 38.81980 | 28.83001 | 37755 ft | 439 kts | 218° |
| 2026-02-18 11:33 | 38.76814 | 28.78695 | 36107 ft | 450 kts | 218° |
| 2026-02-18 11:33 | 38.74186 | 28.76509 | 35896 ft | 449 kts | 218° |
| 2026-02-18 11:34 | 38.71581 | 28.74350 | 35584 ft | 444 kts | 218° |
| 2026-02-18 11:34 | 38.68998 | 28.72210 | 34995 ft | 441 kts | 218° |
| 2026-02-18 11:34 | 38.66434 | 28.70087 | 34406 ft | 438 kts | 218° |
| 2026-02-18 11:34 | 38.63873 | 28.67964 | 33673 ft | 437 kts | 218° |
| 2026-02-18 11:35 | 38.61349 | 28.65802 | 32731 ft | 436 kts | 221° |
| 2026-02-18 11:35 | 38.59111 | 28.63241 | 31609 ft | 439 kts | 231° |
| 2026-02-18 11:35 | 38.57221 | 28.60171 | 30564 ft | 440 kts | 240° |
| 2026-02-18 11:35 | 38.55767 | 28.56739 | 29784 ft | 437 kts | 247° |
| 2026-02-18 11:36 | 38.54485 | 28.53256 | 29283 ft | 429 kts | 246° |
| 2026-02-18 11:36 | 38.53210 | 28.49848 | 28877 ft | 419 kts | 247° |
| 2026-02-18 11:36 | 38.51960 | 28.46520 | 28397 ft | 411 kts | 247° |
| 2026-02-18 11:36 | 38.50736 | 28.43266 | 27912 ft | 403 kts | 247° |
| 2026-02-18 11:37 | 38.49534 | 28.40070 | 27455 ft | 395 kts | 247° |
| 2026-02-18 11:37 | 38.47193 | 28.33849 | 26524 ft | 383 kts | 247° |
| 2026-02-18 11:37 | 38.46050 | 28.30802 | 25992 ft | 379 kts | 249° |
| 2026-02-18 11:38 | 38.45116 | 28.27733 | 25470 ft | 373 kts | 255° |
| 2026-02-18 11:38 | 38.44464 | 28.24557 | 24964 ft | 368 kts | 261° |
| 2026-02-18 11:38 | 38.44042 | 28.21360 | 24456 ft | 364 kts | 263° |
| 2026-02-18 11:38 | 38.43631 | 28.18180 | 23955 ft | 363 kts | 263° |
| 2026-02-18 11:39 | 38.43213 | 28.15001 | 23421 ft | 362 kts | 263° |
| 2026-02-18 11:39 | 38.42794 | 28.11845 | 22877 ft | 361 kts | 262° |
| 2026-02-18 11:39 | 38.42376 | 28.08703 | 22360 ft | 356 kts | 262° |
| 2026-02-18 11:39 | 38.41963 | 28.05611 | 21851 ft | 351 kts | 263° |
| 2026-02-18 11:40 | 38.41553 | 28.02558 | 21359 ft | 348 kts | 263° |
| 2026-02-18 11:40 | 38.41148 | 27.99530 | 20857 ft | 344 kts | 263° |
| 2026-02-18 11:40 | 38.40747 | 27.96539 | 20338 ft | 341 kts | 263° |
| 2026-02-18 11:40 | 38.40348 | 27.93562 | 19820 ft | 339 kts | 263° |
| 2026-02-18 11:41 | 38.39951 | 27.90605 | 19300 ft | 337 kts | 263° |
| 2026-02-18 11:41 | 38.39166 | 27.84779 | 18259 ft | 334 kts | 262° |
| 2026-02-18 11:41 | 38.38772 | 27.81864 | 17714 ft | 333 kts | 262° |
| 2026-02-18 11:42 | 38.38380 | 27.78970 | 17192 ft | 330 kts | 262° |
| 2026-02-18 11:42 | 38.37990 | 27.76099 | 16673 ft | 327 kts | 262° |
| 2026-02-18 11:42 | 38.37602 | 27.73256 | 16169 ft | 324 kts | 262° |
| 2026-02-18 11:42 | 38.37220 | 27.70443 | 15647 ft | 321 kts | 261° |
| 2026-02-18 11:43 | 38.36839 | 27.67640 | 15147 ft | 320 kts | 261° |
| 2026-02-18 11:43 | 38.36458 | 27.64858 | 14648 ft | 318 kts | 261° |
| 2026-02-18 11:43 | 38.36079 | 27.62094 | 14129 ft | 316 kts | 262° |
| 2026-02-18 11:43 | 38.35697 | 27.59342 | 13650 ft | 314 kts | 262° |
| 2026-02-18 11:44 | 38.35317 | 27.56619 | 13121 ft | 310 kts | 261° |
| 2026-02-18 11:44 | 38.34948 | 27.53929 | 12623 ft | 307 kts | 262° |
| 2026-02-18 11:44 | 38.34588 | 27.51305 | 12154 ft | 303 kts | 262° |
| 2026-02-18 11:44 | 38.34226 | 27.48671 | 11666 ft | 301 kts | 261° |
| 2026-02-18 11:45 | 38.33864 | 27.46055 | 11199 ft | 299 kts | 262° |
| 2026-02-18 11:45 | 38.33165 | 27.41026 | 10281 ft | 295 kts | 262° |
| 2026-02-18 11:45 | 38.32761 | 27.38484 | 10004 ft | 287 kts | 258° |
| 2026-02-18 11:46 | 38.32305 | 27.36072 | 9874 ft | 273 kts | 258° |
| 2026-02-18 11:46 | 38.31874 | 27.33751 | 9615 ft | 267 kts | 259° |
| 2026-02-18 11:46 | 38.31454 | 27.31483 | 9420 ft | 258 kts | 258° |
| 2026-02-18 11:46 | 38.30719 | 27.29377 | 9283 ft | 267 kts | 237° |
| 2026-02-18 11:47 | 38.29306 | 27.27804 | 8956 ft | 278 kts | 212° |
| 2026-02-18 11:47 | 38.27412 | 27.27153 | 8493 ft | 290 kts | 186° |
| 2026-02-18 11:47 | 38.25410 | 27.27493 | 8042 ft | 296 kts | 171° |
| 2026-02-18 11:47 | 38.23413 | 27.28132 | 7588 ft | 296 kts | 168° |
| 2026-02-18 11:48 | 38.21420 | 27.28812 | 7159 ft | 295 kts | 168° |
| 2026-02-18 11:48 | 38.19458 | 27.29461 | 6909 ft | 287 kts | 169° |
| 2026-02-18 11:48 | 38.17531 | 27.30072 | 6496 ft | 286 kts | 169° |
| 2026-02-18 11:48 | 38.15591 | 27.30663 | 6038 ft | 288 kts | 170° |
| 2026-02-18 11:49 | 38.13635 | 27.31247 | 5572 ft | 288 kts | 170° |
| 2026-02-18 11:49 | 38.09768 | 27.32190 | 5005 ft | 269 kts | 187° |
| 2026-02-18 11:49 | 38.08054 | 27.31549 | 4860 ft | 250 kts | 216° |
| 2026-02-18 11:50 | 38.06903 | 27.30049 | 4696 ft | 230 kts | 247° |
| 2026-02-18 11:50 | 38.06471 | 27.28202 | 4548 ft | 217 kts | 264° |
| 2026-02-18 11:50 | 38.06276 | 27.26335 | 4381 ft | 210 kts | 266° |
| 2026-02-18 11:50 | 38.06297 | 27.24523 | 4219 ft | 207 kts | 287° |
| 2026-02-18 11:51 | 38.06981 | 27.22937 | 4106 ft | 206 kts | 314° |
| 2026-02-18 11:51 | 38.08206 | 27.22040 | 3951 ft | 205 kts | 339° |
| 2026-02-18 11:51 | 38.09575 | 27.21608 | 3776 ft | 201 kts | 346° |
| 2026-02-18 11:51 | 38.10906 | 27.21240 | 3592 ft | 190 kts | 344° |
| 2026-02-18 11:52 | 38.12162 | 27.20864 | 3443 ft | 181 kts | 343° |
| 2026-02-18 11:52 | 38.13361 | 27.20498 | 3322 ft | 171 kts | 343° |
| 2026-02-18 11:52 | 38.14479 | 27.20162 | 3152 ft | 162 kts | 343° |
| 2026-02-18 11:52 | 38.15554 | 27.19838 | 2925 ft | 156 kts | 343° |
| 2026-02-18 11:53 | 38.16584 | 27.19528 | 2712 ft | 149 kts | 342° |
| 2026-02-18 11:53 | 38.18480 | 27.18955 | 2324 ft | 131 kts | 342° |
| 2026-02-18 11:53 | 38.19333 | 27.18697 | 2141 ft | 126 kts | 343° |
| 2026-02-18 11:54 | 38.20189 | 27.18437 | 1972 ft | 125 kts | 343° |
| 2026-02-18 11:54 | 38.21030 | 27.18183 | 1792 ft | 122 kts | 342° |
| 2026-02-18 11:54 | 38.21862 | 27.17932 | 1627 ft | 125 kts | 343° |
| 2026-02-18 11:54 | 38.22689 | 27.17681 | 1452 ft | 122 kts | 343° |
| 2026-02-18 11:55 | 38.23516 | 27.17431 | 1279 ft | 118 kts | 343° |
| 2026-02-18 11:55 | 38.24338 | 27.17183 | 1112 ft | 126 kts | 345° |
| 2026-02-18 11:55 | 38.25179 | 27.16928 | 938 ft | 118 kts | 345° |
| 2026-02-18 11:55 | 38.25975 | 27.16687 | 776 ft | 119 kts | 343° |
| 2026-02-18 11:56 | 38.26799 | 27.16437 | 629 ft | 123 kts | 344° |
| 2026-02-18 11:56 | 38.27613 | 27.16192 | 457 ft | 118 kts | 344° |
| 2026-02-18 11:56 | 38.28381 | 27.15956 | 382 ft | 98 kts | 347° |
| 2026-02-18 11:56 | 38.28751 | 27.15847 | 386 ft | 12 kts | 346° |
| 2026-02-18 11:57 | 38.28897 | 27.15801 | 387 ft | 31 kts | 346° |
| 2026-02-18 11:57 | 38.29399 | 27.15634 | 389 ft | 12 kts | 317° |
| 2026-02-18 11:57 | 38.29404 | 27.15508 | 390 ft | 18 kts | 260° |
| 2026-02-18 11:58 | 38.29369 | 27.15305 | 396 ft | 27 kts | 256° |
| 2026-02-18 11:58 | 38.29315 | 27.15146 | 394 ft | 10 kts | 191° |
| 2026-02-18 11:58 | 38.29236 | 27.15162 | 393 ft | 6 kts | 173° |
| 2026-02-18 11:58 | 38.29202 | 27.15118 | 393 ft | 8 kts | 262° |
| 2026-02-18 11:59 | 38.29195 | 27.15067 | 393 ft | 8 kts | 259° |
| 2026-02-18 11:59 | 38.29194 | 27.15063 | 393 ft | 1 kts | 259° |
| 2026-02-18 11:59 | 38.29195 | 27.15068 | 393 ft | 0 kts | 259° |
| 2026-02-18 11:59 | 38.29195 | 27.15070 | 393 ft | 0 kts | 259° |
| 2026-02-18 13:06 | 38.29047 | 27.15133 | 391 ft | 0 kts | 256° |